Time;durP1;ratioP1;P1;durP2;ratioP2;P2;SDS_P1;SDS_P2;PMS_P1;PMS_P2;Temp;Humidity;BMP_temperature;BMP_pressure;BME280_temperature;BME280_humidity;BME280_pressure;Samples;Min_cycle;Max_cycle;Signal;HPM_P1;HPM_P2
2022/05/29 00:01:35;;;;;;;1999.90;999.90;;;;;;;;;;5116980;27;20405;-72
2022/05/29 00:04:02;;;;;;;1999.90;999.90;;;;;;;;;;5136108;27;20452;-69
2022/05/29 00:06:31;;;;;;;1999.90;999.90;;;;;;;;;;5129966;27;20408;-71
2022/05/29 00:08:59;;;;;;;1999.90;999.90;;;;;;;;;;5113397;27;20484;-70
2022/05/29 00:11:28;;;;;;;1999.90;999.90;;;;;;;;;;5103245;27;20381;-70
2022/05/29 00:14:00;;;;;;;1999.90;999.90;;;;;;;;;;5131501;27;20531;-68
2022/05/29 00:16:28;;;;;;;1999.90;999.90;;;;;;;;;;5094542;27;20601;-68
2022/05/29 00:18:56;;;;;;;1999.90;999.90;;;;;;;;;;5122856;27;20930;-69
2022/05/29 00:21:24;;;;;;;1999.90;999.90;;;;;;;;;;5127145;27;20983;-70
2022/05/29 00:23:51;;;;;;;1999.90;999.90;;;;;;;;;;5129590;27;20490;-69
2022/05/29 00:26:19;;;;;;;1999.90;999.90;;;;;;;;;;5114188;27;20388;-68
2022/05/29 00:28:49;;;;;;;1999.90;999.90;;;;;;;;;;5134134;27;21332;-69
2022/05/29 00:31:17;;;;;;;1999.90;999.90;;;;;;;;;;5128544;27;20400;-69
2022/05/29 00:33:45;;;;;;;1999.90;999.90;;;;;;;;;;5127162;27;20418;-68
2022/05/29 00:36:14;;;;;;;1999.90;999.90;;;;;;;;;;5127259;27;20392;-69
2022/05/29 00:38:43;;;;;;;1999.90;999.90;;;;;;;;;;5113413;27;20435;-70
2022/05/29 00:41:17;;;;;;;1999.90;999.90;;;;;;;;;;5132071;27;20874;-70
2022/05/29 00:43:47;;;;;;;1999.90;999.90;;;;;;;;;;5117894;27;20396;-70
2022/05/29 00:46:16;;;;;;;1999.90;999.90;;;;;;;;;;5123428;27;20515;-71
2022/05/29 00:48:43;;;;;;;1999.90;999.90;;;;;;;;;;5137088;27;20473;-68
2022/05/29 00:51:12;;;;;;;1999.90;999.90;;;;;;;;;;5116851;27;20398;-69
2022/05/29 00:53:40;;;;;;;1999.90;999.90;;;;;;;;;;5138421;27;20407;-70
2022/05/29 00:56:09;;;;;;;1999.90;999.90;;;;;;;;;;5124489;27;20380;-70
2022/05/29 00:58:37;;;;;;;1999.90;999.90;;;;;;;;;;5137987;27;20427;-70
2022/05/29 01:01:05;;;;;;;1999.90;999.90;;;;;;;;;;5118600;27;20946;-70
2022/05/29 01:03:34;;;;;;;1999.90;999.90;;;;;;;;;;5114743;27;20534;-69
2022/05/29 01:06:01;;;;;;;1999.90;999.90;;;;;;;;;;5136993;27;20417;-69
2022/05/29 01:08:30;;;;;;;1999.90;999.90;;;;;;;;;;5139359;27;20572;-70
2022/05/29 01:11:15;;;;;;;1999.90;999.90;;;;;;;;;;5137320;27;20408;-70
2022/05/29 01:13:49;;;;;;;1999.90;999.90;;;;;;;;;;5136320;27;20423;-70
2022/05/29 01:16:21;;;;;;;1999.90;999.90;;;;;;;;;;5136997;27;20427;-69
2022/05/29 01:18:55;;;;;;;1999.90;999.90;;;;;;;;;;5136867;27;21335;-71
2022/05/29 01:21:35;;;;;;;1999.90;999.90;;;;;;;;;;5136040;27;20392;-71
2022/05/29 01:24:22;;;;;;;1999.90;999.90;;;;;;;;;;5138000;27;20441;-71
2022/05/29 01:27:10;;;;;;;1999.90;999.90;;;;;;;;;;5124193;27;20471;-70
2022/05/29 01:29:42;;;;;;;1999.90;999.90;;;;;;;;;;5138309;27;20865;-71
2022/05/29 01:32:12;;;;;;;1999.90;999.90;;;;;;;;;;5136852;27;20513;-71
2022/05/29 01:34:42;;;;;;;1999.90;999.90;;;;;;;;;;5133625;27;20455;-70
2022/05/29 01:37:13;;;;;;;1999.90;999.90;;;;;;;;;;5133746;27;20879;-68
2022/05/29 01:39:45;;;;;;;1999.90;999.90;;;;;;;;;;5107190;27;20535;-69
2022/05/29 01:42:15;;;;;;;1999.90;999.90;;;;;;;;;;5115977;27;20392;-70
2022/05/29 01:44:46;;;;;;;1999.90;999.90;;;;;;;;;;5118803;27;20471;-70
2022/05/29 01:47:15;;;;;;;1999.90;999.90;;;;;;;;;;5116033;27;20394;-71
2022/05/29 01:49:45;;;;;;;1999.90;999.90;;;;;;;;;;5118782;27;20396;-70
2022/05/29 01:52:15;;;;;;;1999.90;999.90;;;;;;;;;;5110154;27;20434;-71
2022/05/29 01:54:45;;;;;;;1999.90;999.90;;;;;;;;;;5136824;27;20399;-70
2022/05/29 01:57:15;;;;;;;1999.90;999.90;;;;;;;;;;5117622;27;20468;-72
2022/05/29 01:59:47;;;;;;;1999.90;999.90;;;;;;;;;;5133944;27;20871;-70
2022/05/29 02:02:18;;;;;;;1999.90;999.90;;;;;;;;;;5135419;27;21360;-69
2022/05/29 02:04:47;;;;;;;1999.90;999.90;;;;;;;;;;5135076;27;20388;-69
2022/05/29 02:10:02;;;;;;;1999.90;999.90;;;;;;;;;;5131568;27;21023;-68
2022/05/29 02:12:31;;;;;;;1999.90;999.90;;;;;;;;;;5134391;27;20472;-69
2022/05/29 02:15:02;;;;;;;1999.90;999.90;;;;;;;;;;5114082;27;20483;-70
2022/05/29 02:17:40;;;;;;;1999.90;999.90;;;;;;;;;;5129480;27;20469;-70
2022/05/29 02:20:09;;;;;;;1999.90;999.90;;;;;;;;;;5094758;27;20431;-69
2022/05/29 02:22:37;;;;;;;1999.90;999.90;;;;;;;;;;5102292;27;20446;-69
2022/05/29 02:25:08;;;;;;;1999.90;999.90;;;;;;;;;;5132232;27;20418;-70
2022/05/29 02:27:37;;;;;;;1999.90;999.90;;;;;;;;;;5101394;27;20396;-70
2022/05/29 02:30:07;;;;;;;1999.90;999.90;;;;;;;;;;5139860;27;20228;-70
2022/05/29 02:32:40;;;;;;;1999.90;999.90;;;;;;;;;;5142373;27;20292;-70
2022/05/29 02:35:11;;;;;;;1999.90;999.90;;;;;;;;;;5145334;27;20221;-70
2022/05/29 02:37:41;;;;;;;1999.90;999.90;;;;;;;;;;5146933;27;20221;-67
2022/05/29 02:40:14;;;;;;;1999.90;999.90;;;;;;;;;;5125941;27;20233;-69
2022/05/29 02:42:44;;;;;;;1999.90;999.90;;;;;;;;;;5110616;27;20274;-69
2022/05/29 02:45:20;;;;;;;1999.90;999.90;;;;;;;;;;5147442;27;20298;-69
2022/05/29 02:47:54;;;;;;;1999.90;999.90;;;;;;;;;;5140216;27;20235;-69
2022/05/29 02:50:29;;;;;;;1999.90;999.90;;;;;;;;;;5135969;27;21369;-69
2022/05/29 02:52:59;;;;;;;1999.90;999.90;;;;;;;;;;5135890;27;21724;-69
2022/05/29 02:55:26;;;;;;;1999.90;999.90;;;;;;;;;;5115392;27;20319;-67
2022/05/29 02:57:55;;;;;;;1999.90;999.90;;;;;;;;;;5137945;27;20814;-69
2022/05/29 03:00:24;;;;;;;1999.90;999.90;;;;;;;;;;5137763;27;20601;-69
2022/05/29 03:02:57;;;;;;;1999.90;999.90;;;;;;;;;;5139583;27;20534;-70
2022/05/29 03:05:27;;;;;;;1999.90;999.90;;;;;;;;;;5141818;27;20225;-70
2022/05/29 03:08:03;;;;;;;1999.90;999.90;;;;;;;;;;5123667;27;20261;-67
2022/05/29 03:10:33;;;;;;;1999.90;999.90;;;;;;;;;;5140873;27;20273;-69
2022/05/29 03:13:06;;;;;;;1999.90;999.90;;;;;;;;;;5139437;27;20317;-68
2022/05/29 03:15:42;;;;;;;1999.90;999.90;;;;;;;;;;5139294;27;20304;-69
2022/05/29 03:18:15;;;;;;;1999.90;999.90;;;;;;;;;;5140707;27;20245;-68
2022/05/29 03:20:45;;;;;;;1999.90;999.90;;;;;;;;;;5121066;27;20225;-70
2022/05/29 03:23:20;;;;;;;1999.90;999.90;;;;;;;;;;5139030;27;20256;-69
2022/05/29 03:25:49;;;;;;;1999.90;999.90;;;;;;;;;;5140825;27;20229;-69
2022/05/29 03:28:20;;;;;;;1999.90;999.90;;;;;;;;;;5142985;27;20257;-69
2022/05/29 03:30:50;;;;;;;1999.90;999.90;;;;;;;;;;5141739;27;20693;-70
2022/05/29 03:33:18;;;;;;;1999.90;999.90;;;;;;;;;;5139570;27;20344;-68
2022/05/29 03:35:46;;;;;;;1999.90;999.90;;;;;;;;;;5121104;27;20309;-70
2022/05/29 03:38:14;;;;;;;1999.90;999.90;;;;;;;;;;5138556;27;20336;-70
2022/05/29 03:40:48;;;;;;;1999.90;999.90;;;;;;;;;;5122892;27;20233;-70
2022/05/29 03:43:15;;;;;;;1999.90;999.90;;;;;;;;;;5138035;27;20244;-70
2022/05/29 03:45:43;;;;;;;1999.90;999.90;;;;;;;;;;5100824;27;20225;-70
2022/05/29 03:48:12;;;;;;;1999.90;999.90;;;;;;;;;;5107620;27;20235;-68
2022/05/29 03:50:40;;;;;;;1999.90;999.90;;;;;;;;;;5137655;27;20313;-68
2022/05/29 03:53:07;;;;;;;1999.90;999.90;;;;;;;;;;5140150;27;20283;-69
2022/05/29 03:55:35;;;;;;;1999.90;999.90;;;;;;;;;;5121031;27;20308;-70
2022/05/29 03:58:02;;;;;;;1999.90;999.90;;;;;;;;;;5141002;27;20814;-70
2022/05/29 04:00:30;;;;;;;1999.90;999.90;;;;;;;;;;5141711;27;20240;-71
2022/05/29 04:02:57;;;;;;;1999.90;999.90;;;;;;;;;;5137230;27;20233;-71
2022/05/29 04:05:26;;;;;;;1999.90;999.90;;;;;;;;;;5140699;27;20240;-70
2022/05/29 04:13:26;;;;;;;1999.90;999.90;;;;;;;;;;5138622;27;20243;-70
2022/05/29 04:15:53;;;;;;;1999.90;999.90;;;;;;;;;;5137154;27;20232;-70
2022/05/29 04:18:21;;;;;;;1999.90;999.90;;;;;;;;;;5139833;27;20808;-71
2022/05/29 04:20:52;;;;;;;1999.90;999.90;;;;;;;;;;5136528;27;20360;-70
2022/05/29 04:23:20;;;;;;;1999.90;999.90;;;;;;;;;;5121518;27;20261;-70
2022/05/29 04:25:47;;;;;;;1999.90;999.90;;;;;;;;;;5123993;27;20225;-69
2022/05/29 04:28:15;;;;;;;1999.90;999.90;;;;;;;;;;5139986;27;20283;-71
2022/05/29 04:30:43;;;;;;;1999.90;999.90;;;;;;;;;;5137922;27;20733;-71
2022/05/29 04:33:10;;;;;;;1999.90;999.90;;;;;;;;;;5135549;27;20715;-70
2022/05/29 04:35:40;;;;;;;1999.90;999.90;;;;;;;;;;5137433;27;20217;-69
2022/05/29 04:38:09;;;;;;;1999.90;999.90;;;;;;;;;;5120075;27;20240;-69
2022/05/29 04:40:37;;;;;;;1999.90;999.90;;;;;;;;;;5122029;27;20225;-70
2022/05/29 04:43:05;;;;;;;1999.90;999.90;;;;;;;;;;5120416;27;20232;-70
2022/05/29 04:45:33;;;;;;;1999.90;999.90;;;;;;;;;;5140279;27;20229;-69
2022/05/29 04:48:00;;;;;;;1999.90;999.90;;;;;;;;;;5141045;27;20294;-70
2022/05/29 04:50:28;;;;;;;1999.90;999.90;;;;;;;;;;5137308;27;20240;-70
2022/05/29 04:52:56;;;;;;;1999.90;999.90;;;;;;;;;;5101017;27;21075;-70
2022/05/29 04:55:25;;;;;;;1999.90;999.90;;;;;;;;;;5118627;27;20412;-69
2022/05/29 04:57:52;;;;;;;1999.90;999.90;;;;;;;;;;5141219;27;20542;-70
2022/05/29 05:00:20;;;;;;;1999.90;999.90;;;;;;;;;;5139331;27;20799;-71
2022/05/29 05:02:48;;;;;;;1999.90;999.90;;;;;;;;;;5135755;27;20237;-70
2022/05/29 05:05:15;;;;;;;1999.90;999.90;;;;;;;;;;5120842;27;21152;-69
2022/05/29 05:07:43;;;;;;;1999.90;999.90;;;;;;;;;;5138085;27;20529;-70
2022/05/29 05:10:12;;;;;;;1999.90;999.90;;;;;;;;;;5136903;27;21147;-71
2022/05/29 05:12:40;;;;;;;1999.90;999.90;;;;;;;;;;5139034;27;20283;-71
2022/05/29 05:15:09;;;;;;;1999.90;999.90;;;;;;;;;;5139026;27;20763;-71
2022/05/29 05:17:37;;;;;;;1999.90;999.90;;;;;;;;;;5139256;27;20314;-71
2022/05/29 05:20:06;;;;;;;1999.90;999.90;;;;;;;;;;5138353;27;20241;-70
2022/05/29 05:22:34;;;;;;;1999.90;999.90;;;;;;;;;;5133665;27;20229;-71
2022/05/29 05:25:01;;;;;;;1999.90;999.90;;;;;;;;;;5135971;27;20235;-69
2022/05/29 05:27:29;;;;;;;1999.90;999.90;;;;;;;;;;5138189;27;20984;-68
2022/05/29 05:29:58;;;;;;;1999.90;999.90;;;;;;;;;;5118997;27;20229;-70
2022/05/29 05:32:25;;;;;;;1999.90;999.90;;;;;;;;;;5136385;27;20241;-71
2022/05/29 05:34:53;;;;;;;1999.90;999.90;;;;;;;;;;5139037;27;20626;-71
2022/05/29 05:37:21;;;;;;;1999.90;999.90;;;;;;;;;;5121968;27;22414;-71
2022/05/29 05:39:48;;;;;;;1999.90;999.90;;;;;;;;;;5136422;27;20290;-71
2022/05/29 05:42:16;;;;;;;1999.90;999.90;;;;;;;;;;5118941;27;20268;-73
2022/05/29 05:44:43;;;;;;;1999.90;999.90;;;;;;;;;;5119618;27;20318;-71
2022/05/29 05:47:14;;;;;;;1999.90;999.90;;;;;;;;;;5137252;27;20229;-72
2022/05/29 05:49:41;;;;;;;1999.90;999.90;;;;;;;;;;5136588;27;20224;-71
2022/05/29 05:52:09;;;;;;;1999.90;999.90;;;;;;;;;;5129431;27;20224;-69
2022/05/29 05:54:36;;;;;;;1999.90;999.90;;;;;;;;;;5105012;27;20352;-70
2022/05/29 05:57:05;;;;;;;1999.90;999.90;;;;;;;;;;5132026;27;20851;-70
2022/05/29 05:59:33;;;;;;;1999.90;999.90;;;;;;;;;;5114108;27;20235;-70
2022/05/29 06:02:00;;;;;;;1999.90;999.90;;;;;;;;;;5136350;27;20304;-69
2022/05/29 06:04:29;;;;;;;1999.90;999.90;;;;;;;;;;5135887;27;21192;-69
2022/05/29 06:06:57;;;;;;;1999.90;999.90;;;;;;;;;;5137558;27;20232;-69
2022/05/29 06:09:25;;;;;;;1999.90;999.90;;;;;;;;;;5138373;27;20808;-68
2022/05/29 06:11:52;;;;;;;1999.90;999.90;;;;;;;;;;5120115;27;20225;-70
2022/05/29 06:14:20;;;;;;;1999.90;999.90;;;;;;;;;;5136469;27;20244;-69
2022/05/29 06:16:48;;;;;;;1999.90;999.90;;;;;;;;;;5120020;27;20252;-71
2022/05/29 06:19:15;;;;;;;1999.90;999.90;;;;;;;;;;5135961;27;20326;-71
2022/05/29 06:21:44;;;;;;;1999.90;999.90;;;;;;;;;;5136596;27;20289;-72
2022/05/29 06:24:11;;;;;;;1999.90;999.90;;;;;;;;;;5117842;27;20731;-71
2022/05/29 06:26:39;;;;;;;1999.90;999.90;;;;;;;;;;5136978;27;20302;-70
2022/05/29 06:29:07;;;;;;;1999.90;999.90;;;;;;;;;;5137430;27;20733;-70
2022/05/29 06:31:34;;;;;;;1999.90;999.90;;;;;;;;;;5136559;27;20362;-71
2022/05/29 06:34:02;;;;;;;1999.90;999.90;;;;;;;;;;5123186;27;20239;-71
2022/05/29 06:36:29;;;;;;;1999.90;999.90;;;;;;;;;;5142279;27;20228;-71
2022/05/29 06:38:59;;;;;;;1999.90;999.90;;;;;;;;;;5140449;27;20236;-67
2022/05/29 06:41:30;;;;;;;1999.90;999.90;;;;;;;;;;5136359;27;20221;-70
2022/05/29 06:43:58;;;;;;;1999.90;999.90;;;;;;;;;;5123460;27;20790;-71
2022/05/29 06:46:25;;;;;;;1999.90;999.90;;;;;;;;;;5120277;27;20387;-68
2022/05/29 06:48:53;;;;;;;1999.90;999.90;;;;;;;;;;5141293;27;20232;-71
2022/05/29 06:51:23;;;;;;;1999.90;999.90;;;;;;;;;;5125123;27;20224;-70
2022/05/29 06:53:51;;;;;;;1999.90;999.90;;;;;;;;;;5139456;27;20323;-70
2022/05/29 06:56:20;;;;;;;1999.90;999.90;;;;;;;;;;5141257;27;20270;-69
2022/05/29 06:58:48;;;;;;;1999.90;999.90;;;;;;;;;;5132983;27;20256;-69
2022/05/29 07:07:00;;;;;;;1999.90;999.90;;;;;;;;;;5130098;27;20312;-69
2022/05/29 07:09:30;;;;;;;1999.90;999.90;;;;;;;;;;5133422;27;20240;-70
2022/05/29 07:12:01;;;;;;;1999.90;999.90;;;;;;;;;;5131336;27;20273;-72
2022/05/29 07:14:29;;;;;;;1999.90;999.90;;;;;;;;;;5114901;27;20237;-72
2022/05/29 07:16:56;;;;;;;1999.90;999.90;;;;;;;;;;5130343;27;20250;-72
2022/05/29 07:19:28;;;;;;;1999.90;999.90;;;;;;;;;;5120345;27;20229;-70
2022/05/29 07:21:57;;;;;;;1999.90;999.90;;;;;;;;;;5111964;27;20229;-72
2022/05/29 07:24:25;;;;;;;1999.90;999.90;;;;;;;;;;5134592;27;20301;-69
2022/05/29 07:26:53;;;;;;;1999.90;999.90;;;;;;;;;;5133785;27;20229;-71
2022/05/29 07:29:22;;;;;;;1999.90;999.90;;;;;;;;;;5139551;27;20628;-73
2022/05/29 07:31:51;;;;;;;1999.90;999.90;;;;;;;;;;5141806;27;20253;-72
2022/05/29 07:34:19;;;;;;;1999.90;999.90;;;;;;;;;;5125559;27;20233;-71
2022/05/29 07:36:46;;;;;;;1999.90;999.90;;;;;;;;;;5134872;27;20221;-77
2022/05/29 07:39:14;;;;;;;1999.90;999.90;;;;;;;;;;5142104;27;20280;-78
2022/05/29 07:44:28;;;;;;;1999.90;999.90;;;;;;;;;;5141206;27;20314;-78
2022/05/29 07:46:56;;;;;;;1999.90;999.90;;;;;;;;;;5131970;27;20310;-79
2022/05/29 07:49:24;;;;;;;1999.90;999.90;;;;;;;;;;5122589;27;20233;-76
2022/05/29 07:51:51;;;;;;;1999.90;999.90;;;;;;;;;;5142517;27;20274;-76
2022/05/29 07:54:20;;;;;;;1999.90;999.90;;;;;;;;;;5116536;27;20229;-77
2022/05/29 07:56:48;;;;;;;1999.90;999.90;;;;;;;;;;5099650;27;20221;-75
2022/05/29 07:59:17;;;;;;;1999.90;999.90;;;;;;;;;;5138220;27;20244;-76
2022/05/29 08:01:46;;;;;;;1999.90;999.90;;;;;;;;;;5138528;27;20383;-77
2022/05/29 08:04:14;;;;;;;1999.90;999.90;;;;;;;;;;5111847;27;20229;-77
2022/05/29 08:06:41;;;;;;;1999.90;999.90;;;;;;;;;;5119548;27;20233;-76
2022/05/29 08:09:09;;;;;;;1999.90;999.90;;;;;;;;;;5134562;27;20370;-77
2022/05/29 08:11:37;;;;;;;1999.90;999.90;;;;;;;;;;5118079;27;20233;-78
2022/05/29 08:14:04;;;;;;;1999.90;999.90;;;;;;;;;;5108330;27;20241;-79
2022/05/29 08:16:33;;;;;;;1999.90;999.90;;;;;;;;;;5132206;27;20225;-75
2022/05/29 08:19:07;;;;;;;1999.90;999.90;;;;;;;;;;5141709;27;20229;-79
2022/05/29 08:21:51;;;;;;;1999.90;999.90;;;;;;;;;;5134265;27;20723;-76
2022/05/29 08:32:59;;;;;;;1999.90;999.90;;;;;;;;;;5121427;27;20256;-76
2022/05/29 08:35:28;;;;;;;1999.90;999.90;;;;;;;;;;5122246;27;20224;-77
2022/05/29 08:37:55;;;;;;;1999.90;999.90;;;;;;;;;;5108579;27;21095;-76
2022/05/29 08:40:23;;;;;;;1999.90;999.90;;;;;;;;;;5133533;27;20256;-76
2022/05/29 08:42:51;;;;;;;1999.90;999.90;;;;;;;;;;5112494;27;20342;-78
2022/05/29 08:45:19;;;;;;;1999.90;999.90;;;;;;;;;;5135285;27;20846;-76
2022/05/29 08:47:47;;;;;;;1999.90;999.90;;;;;;;;;;5120324;27;20225;-76
2022/05/29 08:50:18;;;;;;;1999.90;999.90;;;;;;;;;;5135058;27;20229;-77
2022/05/29 08:52:52;;;;;;;1999.90;999.90;;;;;;;;;;5102568;27;21156;-77
2022/05/29 08:55:26;;;;;;;1999.90;999.90;;;;;;;;;;5137642;27;20757;-76
2022/05/29 08:57:58;;;;;;;1999.90;999.90;;;;;;;;;;5129862;27;20236;-77
2022/05/29 09:00:30;;;;;;;1999.90;999.90;;;;;;;;;;5135669;27;20229;-75
2022/05/29 09:03:14;;;;;;;1999.90;999.90;;;;;;;;;;5118297;27;20243;-76
2022/05/29 09:05:42;;;;;;;1999.90;999.90;;;;;;;;;;5115905;27;21652;-78
2022/05/29 09:08:14;;;;;;;1999.90;999.90;;;;;;;;;;5106466;27;20919;-76
2022/05/29 09:10:43;;;;;;;1999.90;999.90;;;;;;;;;;5136382;27;20276;-74
2022/05/29 09:13:13;;;;;;;1999.90;999.90;;;;;;;;;;5132518;27;20290;-78
2022/05/29 09:15:44;;;;;;;1999.90;999.90;;;;;;;;;;5132686;27;20229;-76
2022/05/29 09:18:16;;;;;;;1999.90;999.90;;;;;;;;;;5135034;27;20282;-76
2022/05/29 09:20:46;;;;;;;1999.90;999.90;;;;;;;;;;5138298;27;20221;-77
2022/05/29 09:23:18;;;;;;;1999.90;999.90;;;;;;;;;;5137758;27;20286;-76
2022/05/29 09:25:46;;;;;;;1999.90;999.90;;;;;;;;;;5136940;27;21084;-76
2022/05/29 09:28:16;;;;;;;1999.90;999.90;;;;;;;;;;5092549;27;20236;-76
2022/05/29 09:30:43;;;;;;;1999.90;999.90;;;;;;;;;;5134596;27;20233;-76
2022/05/29 09:33:14;;;;;;;1999.90;999.90;;;;;;;;;;5114776;27;20229;-76
2022/05/29 09:35:43;;;;;;;1999.90;999.90;;;;;;;;;;5117729;27;20256;-77
2022/05/29 09:38:15;;;;;;;1999.90;999.90;;;;;;;;;;5116688;27;20226;-78
2022/05/29 09:40:50;;;;;;;1999.90;999.90;;;;;;;;;;5115043;27;20798;-76
2022/05/29 09:43:19;;;;;;;1999.90;999.90;;;;;;;;;;5113725;27;20315;-80
2022/05/29 09:45:48;;;;;;;1999.90;999.90;;;;;;;;;;5128841;27;20320;-74
2022/05/29 09:51:14;;;;;;;1999.90;999.90;;;;;;;;;;5091317;27;20251;-77
2022/05/29 09:53:45;;;;;;;1999.90;999.90;;;;;;;;;;5137032;27;20691;-77
2022/05/29 09:56:15;;;;;;;1999.90;999.90;;;;;;;;;;5135647;27;20236;-76
2022/05/29 09:58:46;;;;;;;1999.90;999.90;;;;;;;;;;5137629;27;20322;-77
2022/05/29 10:01:26;;;;;;;1999.90;999.90;;;;;;;;;;5136920;27;20304;-77
2022/05/29 10:03:55;;;;;;;1999.90;999.90;;;;;;;;;;5138193;27;20319;-76
2022/05/29 10:06:29;;;;;;;1999.90;999.90;;;;;;;;;;5135120;27;20352;-79
2022/05/29 10:09:05;;;;;;;1999.90;999.90;;;;;;;;;;5108892;27;20221;-79
2022/05/29 10:11:34;;;;;;;1999.90;999.90;;;;;;;;;;5127571;27;20794;-76
2022/05/29 10:14:17;;;;;;;1999.90;999.90;;;;;;;;;;5136645;27;21455;-77
2022/05/29 10:16:45;;;;;;;1999.90;999.90;;;;;;;;;;5119863;27;20228;-76
2022/05/29 10:19:14;;;;;;;1999.90;999.90;;;;;;;;;;5139136;27;20217;-77
2022/05/29 10:21:44;;;;;;;1999.90;999.90;;;;;;;;;;5139586;27;20714;-77
2022/05/29 10:24:14;;;;;;;1999.90;999.90;;;;;;;;;;5137499;27;20233;-73
2022/05/29 10:26:48;;;;;;;1999.90;999.90;;;;;;;;;;5118106;27;20237;-74
2022/05/29 10:29:18;;;;;;;1999.90;999.90;;;;;;;;;;5136348;27;20300;-77
2022/05/29 10:31:48;;;;;;;1999.90;999.90;;;;;;;;;;5152183;27;20329;-77
2022/05/29 10:34:21;;;;;;;1999.90;999.90;;;;;;;;;;5117246;27;20229;-77
2022/05/29 10:36:49;;;;;;;1999.90;999.90;;;;;;;;;;5134093;27;20237;-78
2022/05/29 10:39:19;;;;;;;1999.90;999.90;;;;;;;;;;5117036;27;20305;-79
2022/05/29 10:41:48;;;;;;;1999.90;999.90;;;;;;;;;;5135452;27;20316;-78
2022/05/29 10:44:30;;;;;;;1999.90;999.90;;;;;;;;;;5148083;27;20225;-77
2022/05/29 10:47:04;;;;;;;1999.90;999.90;;;;;;;;;;5129799;27;20735;-75
2022/05/29 10:49:34;;;;;;;1999.90;999.90;;;;;;;;;;5151456;27;20232;-77
2022/05/29 10:52:12;;;;;;;1999.90;999.90;;;;;;;;;;5128956;27;20574;-78
2022/05/29 10:54:55;;;;;;;1999.90;999.90;;;;;;;;;;5144189;27;20696;-76
2022/05/29 10:57:34;;;;;;;1999.90;999.90;;;;;;;;;;5128439;27;20232;-76
2022/05/29 11:00:10;;;;;;;1999.90;999.90;;;;;;;;;;5125478;27;20213;-76
2022/05/29 11:05:46;;;;;;;1999.90;999.90;;;;;;;;;;5131693;27;20321;-75
2022/05/29 11:08:18;;;;;;;1999.90;999.90;;;;;;;;;;5125344;27;20321;-77
2022/05/29 11:10:52;;;;;;;1999.90;999.90;;;;;;;;;;5141242;27;20739;-76
2022/05/29 11:13:27;;;;;;;1999.90;999.90;;;;;;;;;;5141024;27;20237;-76
2022/05/29 11:16:01;;;;;;;1999.90;999.90;;;;;;;;;;5120770;27;20793;-70
2022/05/29 11:18:48;;;;;;;1999.90;999.90;;;;;;;;;;5143243;27;20229;-74
2022/05/29 11:21:20;;;;;;;1999.90;999.90;;;;;;;;;;5144900;27;20221;-75
2022/05/29 11:24:00;;;;;;;1999.90;999.90;;;;;;;;;;5144335;27;20233;-75
2022/05/29 11:26:39;;;;;;;1999.90;999.90;;;;;;;;;;5113094;27;20222;-75
2022/05/29 11:29:16;;;;;;;1999.90;999.90;;;;;;;;;;5132523;27;21629;-76
2022/05/29 11:32:06;;;;;;;1999.90;999.90;;;;;;;;;;5142006;27;20237;-74
2022/05/29 11:34:35;;;;;;;1999.90;999.90;;;;;;;;;;5144695;27;20303;-72
2022/05/29 11:37:23;;;;;;;1999.90;999.90;;;;;;;;;;5142838;27;20308;-74
2022/05/29 11:39:53;;;;;;;1999.90;999.90;;;;;;;;;;5148056;27;20224;-77
2022/05/29 11:42:23;;;;;;;1999.90;999.90;;;;;;;;;;5126551;27;20229;-74
2022/05/29 11:44:55;;;;;;;1999.90;999.90;;;;;;;;;;5143091;27;20320;-78
2022/05/29 11:53:08;;;;;;;1999.90;999.90;;;;;;;;;;5136760;27;20318;-74
2022/05/29 11:55:39;;;;;;;1999.90;999.90;;;;;;;;;;5116943;27;20263;-77
2022/05/29 11:58:11;;;;;;;1999.90;999.90;;;;;;;;;;5136303;27;21504;-76
2022/05/29 12:00:44;;;;;;;1999.90;999.90;;;;;;;;;;5101158;27;20221;-74
2022/05/29 12:03:23;;;;;;;1999.90;999.90;;;;;;;;;;5131886;27;20252;-77
2022/05/29 12:05:54;;;;;;;1999.90;999.90;;;;;;;;;;5110879;27;20221;-76
2022/05/29 12:08:25;;;;;;;1999.90;999.90;;;;;;;;;;5141581;27;20582;-72
2022/05/29 12:11:02;;;;;;;1999.90;999.90;;;;;;;;;;5120422;27;20229;-76
2022/05/29 12:13:32;;;;;;;1999.90;999.90;;;;;;;;;;5138336;27;20236;-76
2022/05/29 12:16:03;;;;;;;1999.90;999.90;;;;;;;;;;5138203;27;20229;-77
2022/05/29 12:18:37;;;;;;;1999.90;999.90;;;;;;;;;;5135803;27;20222;-79
2022/05/29 12:21:04;;;;;;;1999.90;999.90;;;;;;;;;;5133878;27;20225;-78
2022/05/29 12:23:34;;;;;;;1999.90;999.90;;;;;;;;;;5120110;27;20237;-74
2022/05/29 12:26:06;;;;;;;1999.90;999.90;;;;;;;;;;5138728;27;20232;-75
2022/05/29 12:28:38;;;;;;;1999.90;999.90;;;;;;;;;;5139962;27;20237;-76
2022/05/29 12:31:08;;;;;;;1999.90;999.90;;;;;;;;;;5136872;27;21529;-77
2022/05/29 12:33:35;;;;;;;1999.90;999.90;;;;;;;;;;5137852;27;20520;-76
2022/05/29 12:36:09;;;;;;;1999.90;999.90;;;;;;;;;;5136844;27;20313;-74
2022/05/29 12:38:42;;;;;;;1999.90;999.90;;;;;;;;;;5119948;27;20476;-73
2022/05/29 12:41:19;;;;;;;1999.90;999.90;;;;;;;;;;5118761;27;20942;-78
2022/05/29 12:44:06;;;;;;;1999.90;999.90;;;;;;;;;;5120042;27;20229;-75
2022/05/29 12:46:48;;;;;;;1999.90;999.90;;;;;;;;;;5121809;27;20668;-75
2022/05/29 12:49:39;;;;;;;1999.90;999.90;;;;;;;;;;5139110;27;20237;-77
2022/05/29 12:52:15;;;;;;;1999.90;999.90;;;;;;;;;;5119930;27;20252;-74
2022/05/29 12:54:46;;;;;;;1999.90;999.90;;;;;;;;;;5131865;27;20399;-78
2022/05/29 12:57:32;;;;;;;1999.90;999.90;;;;;;;;;;5119147;27;20414;-76
2022/05/29 13:00:18;;;;;;;1999.90;999.90;;;;;;;;;;5120135;27;20259;-76
2022/05/29 13:03:04;;;;;;;1999.90;999.90;;;;;;;;;;5148428;27;20229;-76
2022/05/29 13:05:43;;;;;;;1999.90;999.90;;;;;;;;;;5154678;27;20221;-77
2022/05/29 13:08:20;;;;;;;1999.90;999.90;;;;;;;;;;5152418;27;20368;-75
2022/05/29 13:10:50;;;;;;;1999.90;999.90;;;;;;;;;;5141427;27;20384;-72
2022/05/29 13:13:20;;;;;;;1999.90;999.90;;;;;;;;;;5140116;27;20271;-76
2022/05/29 13:15:48;;;;;;;1999.90;999.90;;;;;;;;;;5103924;27;20252;-76
2022/05/29 13:18:23;;;;;;;1999.90;999.90;;;;;;;;;;5156287;27;20368;-74
2022/05/29 13:21:09;;;;;;;1999.90;999.90;;;;;;;;;;5135697;27;20824;-73
2022/05/29 13:23:37;;;;;;;1999.90;999.90;;;;;;;;;;5131187;27;20285;-76
2022/05/29 13:26:14;;;;;;;1999.90;999.90;;;;;;;;;;5134989;27;20235;-75
2022/05/29 13:28:50;;;;;;;1999.90;999.90;;;;;;;;;;5120333;27;20239;-75
2022/05/29 13:31:18;;;;;;;1999.90;999.90;;;;;;;;;;5121111;27;20719;-72
2022/05/29 13:33:49;;;;;;;1999.90;999.90;;;;;;;;;;5120619;27;20229;-75
2022/05/29 13:36:32;;;;;;;1999.90;999.90;;;;;;;;;;5120304;27;20991;-74
2022/05/29 13:39:01;;;;;;;1999.90;999.90;;;;;;;;;;5123017;27;20232;-75
2022/05/29 13:41:30;;;;;;;1999.90;999.90;;;;;;;;;;5134137;27;20703;-73
2022/05/29 13:43:58;;;;;;;1999.90;999.90;;;;;;;;;;5138399;27;20237;-76
2022/05/29 13:46:27;;;;;;;1999.90;999.90;;;;;;;;;;5135363;27;20253;-76
2022/05/29 13:49:01;;;;;;;1999.90;999.90;;;;;;;;;;5101360;27;20416;-76
2022/05/29 13:51:30;;;;;;;1999.90;999.90;;;;;;;;;;5121910;27;20236;-74
2022/05/29 13:53:59;;;;;;;1999.90;999.90;;;;;;;;;;5138558;27;20248;-73
2022/05/29 13:56:45;;;;;;;1999.90;999.90;;;;;;;;;;5133681;27;20268;-74
2022/05/29 14:04:52;;;;;;;1999.90;999.90;;;;;;;;;;5119002;27;20239;-71
2022/05/29 14:07:25;;;;;;;1999.90;999.90;;;;;;;;;;5138238;27;20240;-75
2022/05/29 14:10:05;;;;;;;1999.90;999.90;;;;;;;;;;5134165;27;20351;-74
2022/05/29 14:12:53;;;;;;;1999.90;999.90;;;;;;;;;;5136255;27;20405;-73
2022/05/29 14:15:31;;;;;;;1999.90;999.90;;;;;;;;;;5136481;27;20440;-75
2022/05/29 14:18:01;;;;;;;1999.90;999.90;;;;;;;;;;5117969;27;20224;-74
2022/05/29 14:20:33;;;;;;;1999.90;999.90;;;;;;;;;;5120702;27;20298;-75
2022/05/29 14:23:22;;;;;;;1999.90;999.90;;;;;;;;;;5139525;27;20233;-75
2022/05/29 14:25:58;;;;;;;1999.90;999.90;;;;;;;;;;5142170;27;20225;-75
2022/05/29 14:28:35;;;;;;;1999.90;999.90;;;;;;;;;;5141765;27;21290;-75
2022/05/29 14:31:13;;;;;;;1999.90;999.90;;;;;;;;;;5133618;27;20254;-77
2022/05/29 14:33:56;;;;;;;1999.90;999.90;;;;;;;;;;5136650;27;21650;-76
2022/05/29 14:36:46;;;;;;;1999.90;999.90;;;;;;;;;;5130462;27;20856;-75
2022/05/29 14:39:33;;;;;;;1999.90;999.90;;;;;;;;;;5111870;27;20913;-75
2022/05/29 14:42:02;;;;;;;1999.90;999.90;;;;;;;;;;5136476;27;20250;-75
2022/05/29 14:44:34;;;;;;;1999.90;999.90;;;;;;;;;;5139819;27;20255;-75
2022/05/29 14:47:05;;;;;;;1999.90;999.90;;;;;;;;;;5130954;27;20228;-76